Time;durP1;ratioP1;P1;durP2;ratioP2;P2;SDS_P1;SDS_P2;PMS_P1;PMS_P2;Temp;Humidity;BMP_temperature;BMP_pressure;BME280_temperature;BME280_humidity;BME280_pressure;Samples;Min_cycle;Max_cycle;Signal;HPM_P1;HPM_P2
2022/07/19 00:00:20;;;;;;;;;;;27.90;41.90;;;;;;5053485;28;19959;-58
2022/07/19 00:02:46;;;;;;;;;;;27.80;41.80;;;;;;5071583;28;19954;-58
2022/07/19 00:05:14;;;;;;;;;;;27.80;42.40;;;;;;5070869;28;20200;-59
2022/07/19 00:07:40;;;;;;;;;;;27.80;41.90;;;;;;5071566;28;19908;-59
2022/07/19 00:10:07;;;;;;;;;;;27.70;42.20;;;;;;5071590;28;19959;-55
2022/07/19 00:12:33;;;;;;;;;;;27.70;42.20;;;;;;5065016;28;19924;-57
2022/07/19 00:14:58;;;;;;;;;;;27.70;42.20;;;;;;5071291;28;19971;-58
2022/07/19 00:17:24;;;;;;;;;;;27.70;43.50;;;;;;5071339;28;19908;-57
2022/07/19 00:19:49;;;;;;;;;;;27.70;42.00;;;;;;5071575;28;19940;-58
2022/07/19 00:22:15;;;;;;;;;;;27.60;42.00;;;;;;5070771;28;19915;-57
2022/07/19 00:24:40;;;;;;;;;;;27.60;42.30;;;;;;5053686;28;19917;-57
2022/07/19 00:27:06;;;;;;;;;;;27.60;42.00;;;;;;5065119;28;19994;-57
2022/07/19 00:29:31;;;;;;;;;;;27.60;42.70;;;;;;5071350;28;19913;-59
2022/07/19 00:31:57;;;;;;;;;;;27.60;42.40;;;;;;5071601;28;20326;-59
2022/07/19 00:34:22;;;;;;;;;;;27.60;41.80;;;;;;5071022;28;19917;-58
2022/07/19 00:36:48;;;;;;;;;;;27.60;42.20;;;;;;5065945;28;20401;-59
2022/07/19 00:39:13;;;;;;;;;;;27.60;42.20;;;;;;5071488;28;19954;-58
2022/07/19 00:41:42;;;;;;;;;;;27.50;42.30;;;;;;5065485;28;19915;-57
2022/07/19 00:44:08;;;;;;;;;;;27.50;42.10;;;;;;5071158;28;19909;-59
2022/07/19 00:46:34;;;;;;;;;;;27.50;42.40;;;;;;5070717;28;19908;-58
2022/07/19 00:49:00;;;;;;;;;;;27.60;42.50;;;;;;5070511;28;19966;-56
2022/07/19 00:51:25;;;;;;;;;;;27.50;42.20;;;;;;5070190;28;20006;-56
2022/07/19 00:53:51;;;;;;;;;;;27.60;42.30;;;;;;5070702;28;19920;-58
2022/07/19 00:56:17;;;;;;;;;;;27.50;42.10;;;;;;5067570;28;20756;-57
2022/07/19 00:58:43;;;;;;;;;;;27.50;42.40;;;;;;5071199;28;20050;-58
2022/07/19 01:01:09;;;;;;;;;;;27.40;42.20;;;;;;5071104;28;19915;-58
2022/07/19 01:03:35;;;;;;;;;;;27.40;42.20;;;;;;5070245;28;19914;-57
2022/07/19 01:06:01;;;;;;;;;;;27.40;42.70;;;;;;5066645;28;19916;-57
2022/07/19 01:08:26;;;;;;;;;;;27.40;42.90;;;;;;5070972;28;19923;-58
2022/07/19 01:10:52;;;;;;;;;;;27.30;43.00;;;;;;5070372;28;19908;-58
2022/07/19 01:13:17;;;;;;;;;;;27.30;42.30;;;;;;5039285;28;19916;-58
2022/07/19 01:15:43;;;;;;;;;;;27.20;42.50;;;;;;5071023;28;20370;-58
2022/07/19 01:18:09;;;;;;;;;;;27.20;43.80;;;;;;5069699;28;19952;-58
2022/07/19 01:20:34;;;;;;;;;;;27.20;43.20;;;;;;5070540;28;19909;-57
2022/07/19 01:23:00;;;;;;;;;;;27.10;42.70;;;;;;5071276;28;19954;-58
2022/07/19 01:25:27;;;;;;;;;;;27.10;43.10;;;;;;5070589;28;20397;-58
2022/07/19 01:27:52;;;;;;;;;;;27.10;43.90;;;;;;5070384;28;19938;-59
2022/07/19 01:30:20;;;;;;;;;;;27.00;43.20;;;;;;5071487;28;19915;-58
2022/07/19 01:32:46;;;;;;;;;;;27.00;43.40;;;;;;5070549;28;19923;-58
2022/07/19 01:35:12;;;;;;;;;;;26.90;43.60;;;;;;5070262;28;19912;-59
2022/07/19 01:37:38;;;;;;;;;;;26.90;44.50;;;;;;5052695;28;19909;-57
2022/07/19 01:40:04;;;;;;;;;;;26.90;44.80;;;;;;5070415;28;19916;-58
2022/07/19 01:42:30;;;;;;;;;;;26.80;44.90;;;;;;5070460;28;19916;-58
2022/07/19 01:44:56;;;;;;;;;;;26.80;44.10;;;;;;5070629;28;20284;-58
2022/07/19 01:47:21;;;;;;;;;;;26.70;44.70;;;;;;5069989;28;19909;-58
2022/07/19 01:49:47;;;;;;;;;;;26.70;44.90;;;;;;5070010;28;19950;-58
2022/07/19 01:52:12;;;;;;;;;;;26.70;44.50;;;;;;5052559;28;20007;-56
2022/07/19 01:54:38;;;;;;;;;;;26.60;43.60;;;;;;5070139;28;19916;-57
2022/07/19 01:57:03;;;;;;;;;;;26.60;45.10;;;;;;5070569;28;19954;-59
2022/07/19 01:59:29;;;;;;;;;;;26.60;43.60;;;;;;5070620;28;19916;-57
2022/07/19 02:01:54;;;;;;;;;;;26.60;43.80;;;;;;5072262;28;19909;-58
2022/07/19 02:04:19;;;;;;;;;;;26.50;43.90;;;;;;5073793;28;19915;-58
2022/07/19 02:06:45;;;;;;;;;;;26.50;44.10;;;;;;5074143;28;19909;-58
2022/07/19 02:09:11;;;;;;;;;;;26.50;44.30;;;;;;5073724;28;20019;-59
2022/07/19 02:11:36;;;;;;;;;;;26.50;43.80;;;;;;5074032;28;19915;-58
2022/07/19 02:14:06;;;;;;;;;;;26.40;44.20;;;;;;5073757;28;19942;-58
2022/07/19 02:16:31;;;;;;;;;;;26.40;44.00;;;;;;5073396;28;19912;-58
2022/07/19 02:18:57;;;;;;;;;;;26.40;44.30;;;;;;5073861;28;20007;-57
2022/07/19 02:21:22;;;;;;;;;;;26.40;44.50;;;;;;5073647;28;20266;-57
2022/07/19 02:23:47;;;;;;;;;;;26.40;44.50;;;;;;5074094;28;19909;-58
2022/07/19 02:26:13;;;;;;;;;;;26.40;44.30;;;;;;5055641;28;19947;-58
2022/07/19 02:28:38;;;;;;;;;;;26.40;44.30;;;;;;5066829;28;20274;-58
2022/07/19 02:31:04;;;;;;;;;;;26.40;44.70;;;;;;5073529;28;19970;-58
2022/07/19 02:33:30;;;;;;;;;;;26.30;44.20;;;;;;5073094;28;19924;-59
2022/07/19 02:35:55;;;;;;;;;;;26.40;44.80;;;;;;5073496;28;19912;-58
2022/07/19 02:38:21;;;;;;;;;;;26.40;44.40;;;;;;5073310;28;20365;-56
2022/07/19 02:40:46;;;;;;;;;;;26.40;45.00;;;;;;5073218;28;19909;-57
2022/07/19 02:43:12;;;;;;;;;;;26.30;45.40;;;;;;5073333;28;20392;-57
2022/07/19 02:45:37;;;;;;;;;;;26.30;46.30;;;;;;5072921;28;19913;-58
2022/07/19 02:48:04;;;;;;;;;;;26.20;45.20;;;;;;5073673;28;19912;-58
2022/07/19 02:50:30;;;;;;;;;;;26.20;46.20;;;;;;5072758;28;20683;-57
2022/07/19 02:52:56;;;;;;;;;;;26.20;45.60;;;;;;5073665;28;19923;-55
2022/07/19 02:55:21;;;;;;;;;;;26.20;45.60;;;;;;5073201;28;19912;-57
2022/07/19 02:57:47;;;;;;;;;;;26.10;46.20;;;;;;5071565;28;19973;-58
2022/07/19 03:00:13;;;;;;;;;;;26.00;46.20;;;;;;5066019;28;19920;-58
2022/07/19 03:02:38;;;;;;;;;;;26.00;45.20;;;;;;5073193;28;20348;-57
2022/07/19 03:05:04;;;;;;;;;;;26.00;45.10;;;;;;5072833;28;19916;-58
2022/07/19 03:07:30;;;;;;;;;;;26.00;45.20;;;;;;5072793;28;19912;-57
2022/07/19 03:09:56;;;;;;;;;;;25.90;45.30;;;;;;5072514;28;19908;-58
2022/07/19 03:12:21;;;;;;;;;;;25.90;44.90;;;;;;5071880;28;19916;-58
2022/07/19 03:14:47;;;;;;;;;;;25.90;46.30;;;;;;5072224;28;20357;-58
2022/07/19 03:17:12;;;;;;;;;;;25.80;45.50;;;;;;5072706;28;20365;-56
2022/07/19 03:19:38;;;;;;;;;;;25.80;46.20;;;;;;5054461;28;20317;-59
2022/07/19 03:22:03;;;;;;;;;;;25.80;46.80;;;;;;5072786;28;19909;-59
2022/07/19 03:24:29;;;;;;;;;;;25.70;47.70;;;;;;5072687;28;20297;-60
2022/07/19 03:26:54;;;;;;;;;;;25.70;47.40;;;;;;5072149;28;20369;-58
2022/07/19 03:29:20;;;;;;;;;;;25.60;46.10;;;;;;5072354;28;19909;-58
2022/07/19 03:31:45;;;;;;;;;;;25.60;46.30;;;;;;5072218;28;19908;-57
2022/07/19 03:34:11;;;;;;;;;;;25.50;47.70;;;;;;5072021;28;19931;-58
2022/07/19 03:36:37;;;;;;;;;;;25.50;46.60;;;;;;5066784;28;20327;-57
2022/07/19 03:39:03;;;;;;;;;;;25.40;47.70;;;;;;5072269;28;19912;-58
2022/07/19 03:41:28;;;;;;;;;;;25.30;47.30;;;;;;5071958;28;19919;-56
2022/07/19 03:43:54;;;;;;;;;;;25.30;47.50;;;;;;5072006;28;19939;-57
2022/07/19 03:46:20;;;;;;;;;;;25.20;47.70;;;;;;5072335;28;19950;-57
2022/07/19 03:48:46;;;;;;;;;;;25.20;48.50;;;;;;5071068;28;19967;-54
2022/07/19 03:51:12;;;;;;;;;;;25.10;48.90;;;;;;5071673;28;19963;-57
2022/07/19 03:53:37;;;;;;;;;;;25.10;48.60;;;;;;5071546;28;19924;-54
2022/07/19 03:56:03;;;;;;;;;;;25.00;48.10;;;;;;5071156;28;19912;-56
2022/07/19 03:58:29;;;;;;;;;;;25.00;48.10;;;;;;5071384;28;20046;-56
2022/07/19 04:00:54;;;;;;;;;;;25.00;49.20;;;;;;5071972;28;19909;-58
2022/07/19 04:03:20;;;;;;;;;;;24.90;48.90;;;;;;5071594;28;20366;-57
2022/07/19 04:05:45;;;;;;;;;;;24.90;48.50;;;;;;5071488;28;19909;-55
2022/07/19 04:08:11;;;;;;;;;;;24.90;48.60;;;;;;5071244;28;19993;-58
2022/07/19 04:10:36;;;;;;;;;;;24.80;48.00;;;;;;5071245;28;19908;-58
2022/07/19 04:13:02;;;;;;;;;;;24.80;49.00;;;;;;5070988;28;19946;-57
2022/07/19 04:15:28;;;;;;;;;;;24.70;48.10;;;;;;5071548;28;19913;-57
2022/07/19 04:17:53;;;;;;;;;;;24.80;49.00;;;;;;5065327;28;20011;-58
2022/07/19 04:20:19;;;;;;;;;;;24.70;49.30;;;;;;5071479;28;19915;-56
2022/07/19 04:22:44;;;;;;;;;;;24.70;49.20;;;;;;5070216;28;20446;-56
2022/07/19 04:25:10;;;;;;;;;;;24.70;50.00;;;;;;5071026;28;20289;-56
2022/07/19 04:27:36;;;;;;;;;;;24.60;49.60;;;;;;5071429;28;19912;-57
2022/07/19 04:30:01;;;;;;;;;;;24.70;49.50;;;;;;5071026;28;19927;-57
2022/07/19 04:32:28;;;;;;;;;;;24.60;49.10;;;;;;5070773;28;19909;-56
2022/07/19 04:34:54;;;;;;;;;;;24.60;48.70;;;;;;5071554;28;19915;-57
2022/07/19 04:37:19;;;;;;;;;;;24.60;49.90;;;;;;5070971;28;19909;-57
2022/07/19 04:39:45;;;;;;;;;;;24.60;49.20;;;;;;5071132;28;19944;-57
2022/07/19 04:42:10;;;;;;;;;;;24.60;49.30;;;;;;5070429;28;19920;-57
2022/07/19 04:44:36;;;;;;;;;;;24.60;49.10;;;;;;5070740;28;19969;-52
2022/07/19 04:47:01;;;;;;;;;;;24.60;49.90;;;;;;5071210;28;19913;-56
2022/07/19 04:49:27;;;;;;;;;;;24.60;50.60;;;;;;5070496;28;20007;-56
2022/07/19 04:51:52;;;;;;;;;;;24.60;51.00;;;;;;5071118;28;19916;-57
2022/07/19 04:54:18;;;;;;;;;;;24.60;49.20;;;;;;5070856;28;19939;-56
2022/07/19 04:56:43;;;;;;;;;;;24.60;49.80;;;;;;5070563;28;20392;-56
2022/07/19 04:59:09;;;;;;;;;;;24.60;50.80;;;;;;5068683;28;19917;-55
2022/07/19 05:01:35;;;;;;;;;;;24.70;50.20;;;;;;5070714;28;19913;-57
2022/07/19 05:04:00;;;;;;;;;;;24.70;50.80;;;;;;5064382;28;20440;-57
2022/07/19 05:06:26;;;;;;;;;;;24.70;50.90;;;;;;5070839;28;19908;-56
2022/07/19 05:08:52;;;;;;;;;;;24.70;50.10;;;;;;5071210;28;19916;-57
2022/07/19 05:11:18;;;;;;;;;;;24.70;50.00;;;;;;5068038;28;19908;-57
2022/07/19 05:13:44;;;;;;;;;;;24.80;51.30;;;;;;5070795;28;20289;-57
2022/07/19 05:16:09;;;;;;;;;;;24.80;50.10;;;;;;5070989;28;19913;-56
2022/07/19 05:18:35;;;;;;;;;;;24.90;51.00;;;;;;5070135;28;19943;-56
2022/07/19 05:21:00;;;;;;;;;;;24.90;50.50;;;;;;5070507;28;20008;-57
2022/07/19 05:23:26;;;;;;;;;;;24.90;50.70;;;;;;5070194;28;19996;-57
2022/07/19 05:25:51;;;;;;;;;;;24.90;52.10;;;;;;5070157;28;19912;-56
2022/07/19 05:28:17;;;;;;;;;;;25.00;50.80;;;;;;5070587;28;19909;-58
2022/07/19 05:30:43;;;;;;;;;;;25.00;51.10;;;;;;5052309;28;19921;-57
2022/07/19 05:33:09;;;;;;;;;;;25.10;50.30;;;;;;5071680;28;19928;-58
2022/07/19 05:35:34;;;;;;;;;;;25.10;50.80;;;;;;5070686;28;19909;-59
2022/07/19 05:38:00;;;;;;;;;;;25.20;51.00;;;;;;5074410;28;19942;-60
2022/07/19 05:40:25;;;;;;;;;;;25.20;52.20;;;;;;5074298;28;19909;-61
2022/07/19 05:42:51;;;;;;;;;;;25.30;51.50;;;;;;5073907;28;19974;-59
2022/07/19 05:45:16;;;;;;;;;;;25.30;50.90;;;;;;5083240;28;19912;-60
2022/07/19 05:47:42;;;;;;;;;;;25.30;51.30;;;;;;5077830;28;19923;-60
2022/07/19 05:50:08;;;;;;;;;;;25.40;51.90;;;;;;5074124;28;20393;-60
2022/07/19 05:52:33;;;;;;;;;;;25.40;50.90;;;;;;5074029;28;19908;-61
2022/07/19 05:54:59;;;;;;;;;;;25.50;50.90;;;;;;5067040;28;19958;-59
2022/07/19 05:57:24;;;;;;;;;;;25.50;51.20;;;;;;5073995;28;19908;-60
2022/07/19 05:59:49;;;;;;;;;;;25.60;50.80;;;;;;5073682;28;20426;-60
2022/07/19 06:02:16;;;;;;;;;;;25.60;50.70;;;;;;5079815;28;19912;-60
2022/07/19 06:04:42;;;;;;;;;;;25.70;50.80;;;;;;5073531;28;19916;-60
2022/07/19 06:07:07;;;;;;;;;;;25.70;51.10;;;;;;5074020;28;19962;-61
2022/07/19 06:09:33;;;;;;;;;;;25.80;51.20;;;;;;5073230;28;20436;-61
2022/07/19 06:11:58;;;;;;;;;;;25.80;50.80;;;;;;5073770;28;19909;-59
2022/07/19 06:14:24;;;;;;;;;;;25.90;51.30;;;;;;5073157;28;19917;-60
2022/07/19 06:16:49;;;;;;;;;;;25.90;50.90;;;;;;5081375;28;19916;-59
2022/07/19 06:19:15;;;;;;;;;;;25.90;50.60;;;;;;5064637;28;21228;-61
2022/07/19 06:21:40;;;;;;;;;;;26.00;50.60;;;;;;5076674;28;19912;-59
2022/07/19 06:24:06;;;;;;;;;;;26.10;50.60;;;;;;5080303;28;19917;-60
2022/07/19 06:26:31;;;;;;;;;;;26.20;50.70;;;;;;5078100;28;20372;-58
2022/07/19 06:28:57;;;;;;;;;;;26.20;50.50;;;;;;5072862;28;19908;-58
2022/07/19 06:31:23;;;;;;;;;;;26.30;50.80;;;;;;5077341;28;19913;-57
2022/07/19 06:33:49;;;;;;;;;;;26.30;50.40;;;;;;5075767;28;19963;-58
2022/07/19 06:36:16;;;;;;;;;;;26.40;50.30;;;;;;5077832;28;19909;-57
2022/07/19 06:38:42;;;;;;;;;;;26.50;50.20;;;;;;5069531;28;20358;-58
2022/07/19 06:41:08;;;;;;;;;;;26.50;50.20;;;;;;5072664;28;19909;-58
2022/07/19 06:43:34;;;;;;;;;;;26.60;50.20;;;;;;5073196;28;19953;-56
2022/07/19 06:45:59;;;;;;;;;;;26.70;50.20;;;;;;5073136;28;19912;-57
2022/07/19 06:48:25;;;;;;;;;;;26.70;50.10;;;;;;5065121;28;20046;-57
2022/07/19 06:50:51;;;;;;;;;;;26.80;49.90;;;;;;5073071;28;20053;-55
2022/07/19 06:53:16;;;;;;;;;;;26.80;49.80;;;;;;5054273;28;20003;-57
2022/07/19 06:55:41;;;;;;;;;;;26.90;50.00;;;;;;5072881;28;19920;-58
2022/07/19 06:58:07;;;;;;;;;;;27.00;49.80;;;;;;5073056;28;19999;-57
2022/07/19 07:00:32;;;;;;;;;;;27.10;49.60;;;;;;5072895;28;20600;-58
2022/07/19 07:02:58;;;;;;;;;;;27.20;49.80;;;;;;5072572;28;19995;-58
2022/07/19 07:05:24;;;;;;;;;;;27.20;49.50;;;;;;5072744;28;20373;-57
2022/07/19 07:07:51;;;;;;;;;;;27.30;49.30;;;;;;5072734;28;19909;-57
2022/07/19 07:10:17;;;;;;;;;;;27.40;49.40;;;;;;5072863;28;19995;-58
2022/07/19 07:12:42;;;;;;;;;;;27.40;49.40;;;;;;5072666;28;19939;-57
2022/07/19 07:15:08;;;;;;;;;;;27.50;49.30;;;;;;5072848;28;19912;-57
2022/07/19 07:17:34;;;;;;;;;;;27.60;49.60;;;;;;5055254;28;19965;-57
2022/07/19 07:20:00;;;;;;;;;;;27.60;49.30;;;;;;5072391;28;19909;-57
2022/07/19 07:22:26;;;;;;;;;;;27.70;49.40;;;;;;5072318;28;20428;-56
2022/07/19 07:24:51;;;;;;;;;;;27.80;49.30;;;;;;5072381;28;19909;-58
2022/07/19 07:27:17;;;;;;;;;;;27.80;49.00;;;;;;5072446;28;19962;-58
2022/07/19 07:29:42;;;;;;;;;;;27.90;49.00;;;;;;5072800;28;19915;-57
2022/07/19 07:32:08;;;;;;;;;;;28.00;49.00;;;;;;5072382;28;19938;-57
2022/07/19 07:34:33;;;;;;;;;;;28.00;49.10;;;;;;5071186;28;20328;-58
2022/07/19 07:36:59;;;;;;;;;;;28.00;48.90;;;;;;5071470;28;19909;-57
2022/07/19 07:39:24;;;;;;;;;;;28.10;49.00;;;;;;5072067;28;20361;-57
2022/07/19 07:41:50;;;;;;;;;;;28.20;48.90;;;;;;5071703;28;19909;-57
2022/07/19 07:44:15;;;;;;;;;;;28.20;48.90;;;;;;5072374;28;19987;-58
2022/07/19 07:46:41;;;;;;;;;;;28.30;48.90;;;;;;5071680;28;19916;-58
2022/07/19 07:49:07;;;;;;;;;;;28.30;48.80;;;;;;5071349;28;20413;-57
2022/07/19 07:51:32;;;;;;;;;;;28.30;48.90;;;;;;5070908;28;20027;-58
2022/07/19 07:53:59;;;;;;;;;;;28.40;48.80;;;;;;5071218;28;19927;-57
2022/07/19 07:56:24;;;;;;;;;;;28.40;48.70;;;;;;5071236;28;20034;-55
2022/07/19 07:58:50;;;;;;;;;;;28.50;48.60;;;;;;5070863;28;20007;-57
2022/07/19 08:01:16;;;;;;;;;;;28.60;48.60;;;;;;5071935;28;19916;-57
2022/07/19 08:03:41;;;;;;;;;;;28.60;48.70;;;;;;5053325;28;19987;-57
2022/07/19 08:06:07;;;;;;;;;;;28.60;48.70;;;;;;5070908;28;20745;-57
2022/07/19 08:08:32;;;;;;;;;;;28.70;48.60;;;;;;5071578;28;20377;-57
2022/07/19 08:10:58;;;;;;;;;;;28.70;48.50;;;;;;5071441;28;19908;-57
2022/07/19 08:13:23;;;;;;;;;;;28.80;48.50;;;;;;5071052;28;19939;-57
2022/07/19 08:15:49;;;;;;;;;;;28.80;48.50;;;;;;5070741;28;20573;-58
2022/07/19 08:18:14;;;;;;;;;;;28.90;48.50;;;;;;5052762;28;19909;-57
2022/07/19 08:20:40;;;;;;;;;;;29.00;48.60;;;;;;5070640;28;20369;-57
2022/07/19 08:23:06;;;;;;;;;;;29.00;48.50;;;;;;5071642;28;19959;-58
2022/07/19 08:25:33;;;;;;;;;;;29.10;48.40;;;;;;5071388;28;19919;-57
2022/07/19 08:27:59;;;;;;;;;;;29.20;48.20;;;;;;5071890;28;19915;-56
2022/07/19 08:30:24;;;;;;;;;;;29.30;48.30;;;;;;5071142;28;19912;-57
2022/07/19 08:32:50;;;;;;;;;;;29.40;47.90;;;;;;5070976;28;20301;-57
2022/07/19 08:35:15;;;;;;;;;;;29.50;47.90;;;;;;5070831;28;19961;-57
2022/07/19 08:37:41;;;;;;;;;;;29.50;47.80;;;;;;5071856;28;20012;-57
2022/07/19 08:40:07;;;;;;;;;;;29.50;47.70;;;;;;5071025;28;19908;-57
2022/07/19 08:42:32;;;;;;;;;;;29.50;47.70;;;;;;5071353;28;19919;-57
2022/07/19 08:45:00;;;;;;;;;;;29.60;47.70;;;;;;5071335;28;19912;-58
2022/07/19 08:47:26;;;;;;;;;;;29.60;47.60;;;;;;5070511;28;20384;-57
2022/07/19 08:49:52;;;;;;;;;;;29.70;47.60;;;;;;5069983;28;20440;-58
2022/07/19 08:52:18;;;;;;;;;;;29.70;47.70;;;;;;5064755;28;19991;-57
2022/07/19 08:54:43;;;;;;;;;;;29.80;47.40;;;;;;5070942;28;19916;-58
2022/07/19 08:59:53;;;;;;;;;;;29.80;47.20;;;;;;5071670;28;19958;-58
2022/07/19 09:02:18;;;;;;;;;;;29.90;46.90;;;;;;5070532;28;19948;-58
2022/07/19 09:04:58;;;;;;;;;;;29.90;47.10;;;;;;5070551;28;20359;-58
2022/07/19 09:07:23;;;;;;;;;;;30.00;46.60;;;;;;5070776;28;19913;-57
2022/07/19 09:09:49;;;;;;;;;;;30.00;46.90;;;;;;5071103;28;19961;-57
2022/07/19 09:12:14;;;;;;;;;;;30.10;46.90;;;;;;5070777;28;19978;-57
2022/07/19 09:14:40;;;;;;;;;;;30.20;46.90;;;;;;5070830;28;20347;-58
2022/07/19 09:17:11;;;;;;;;;;;30.40;46.50;;;;;;5070319;28;19909;-58
2022/07/19 09:19:41;;;;;;;;;;;30.50;46.60;;;;;;5070609;28;19965;-58
2022/07/19 09:22:07;;;;;;;;;;;30.60;46.00;;;;;;5070533;28;19915;-57
2022/07/19 09:24:37;;;;;;;;;;;30.70;46.20;;;;;;5071349;28;20011;-57
2022/07/19 09:27:07;;;;;;;;;;;30.80;46.00;;;;;;5070737;28;19957;-57
2022/07/19 09:29:34;;;;;;;;;;;30.90;46.10;;;;;;5070571;28;19947;-58
2022/07/19 09:32:07;;;;;;;;;;;31.00;45.40;;;;;;5063839;28;19916;-57
2022/07/19 09:34:37;;;;;;;;;;;31.10;46.00;;;;;;5070761;28;19920;-58
2022/07/19 09:37:09;;;;;;;;;;;31.20;45.60;;;;;;5070676;28;19909;-58
2022/07/19 09:39:34;;;;;;;;;;;31.20;45.00;;;;;;5070493;28;19915;-58
2022/07/19 09:42:02;;;;;;;;;;;31.20;45.20;;;;;;5070826;28;19908;-57
2022/07/19 09:44:29;;;;;;;;;;;31.30;45.20;;;;;;5069044;28;20557;-58
2022/07/19 09:46:54;;;;;;;;;;;31.30;44.60;;;;;;5070507;28;19919;-57
2022/07/19 09:49:20;;;;;;;;;;;31.40;44.20;;;;;;5070437;28;19946;-56
2022/07/19 09:51:47;;;;;;;;;;;31.40;44.60;;;;;;5069667;28;20331;-58
2022/07/19 09:54:14;;;;;;;;;;;31.50;44.70;;;;;;5056789;28;20447;-58
2022/07/19 09:56:41;;;;;;;;;;;31.50;44.70;;;;;;5063984;28;20373;-58
2022/07/19 09:59:06;;;;;;;;;;;31.60;44.80;;;;;;5067391;28;19956;-57
2022/07/19 10:01:32;;;;;;;;;;;31.70;44.20;;;;;;5044174;28;19959;-59
2022/07/19 10:04:00;;;;;;;;;;;31.90;43.70;;;;;;5068108;28;19916;-57
2022/07/19 10:06:26;;;;;;;;;;;31.90;43.90;;;;;;5067816;28;19913;-57
2022/07/19 10:08:56;;;;;;;;;;;32.00;43.90;;;;;;5067372;28;19917;-57
2022/07/19 10:11:21;;;;;;;;;;;32.00;43.30;;;;;;5037604;28;19939;-58
2022/07/19 10:13:49;;;;;;;;;;;32.20;43.40;;;;;;5068119;28;19929;-58
2022/07/19 10:16:17;;;;;;;;;;;32.30;42.40;;;;;;5067548;28;19919;-58
2022/07/19 10:18:51;;;;;;;;;;;32.40;42.10;;;;;;5067111;28;19958;-57
2022/07/19 10:21:17;;;;;;;;;;;32.50;42.00;;;;;;5066515;28;19916;-58
2022/07/19 10:23:51;;;;;;;;;;;32.60;41.60;;;;;;5071113;28;20304;-58
2022/07/19 10:26:33;;;;;;;;;;;32.60;41.60;;;;;;5067682;28;20011;-58
2022/07/19 10:29:09;;;;;;;;;;;32.70;41.30;;;;;;5069794;28;19922;-58
2022/07/19 10:31:35;;;;;;;;;;;32.80;41.40;;;;;;5074199;28;20003;-57
2022/07/19 10:34:08;;;;;;;;;;;32.90;41.10;;;;;;5070749;28;20106;-57
2022/07/19 10:36:43;;;;;;;;;;;32.90;41.60;;;;;;5074035;28;19916;-58
2022/07/19 10:39:18;;;;;;;;;;;33.00;40.60;;;;;;5068680;28;19913;-58
2022/07/19 10:42:02;;;;;;;;;;;33.10;40.40;;;;;;5052351;28;20286;-58
2022/07/19 10:44:28;;;;;;;;;;;33.10;40.40;;;;;;5068332;28;20366;-58
2022/07/19 10:46:53;;;;;;;;;;;33.30;40.00;;;;;;5070348;28;19916;-57
2022/07/19 10:49:48;;;;;;;;;;;33.40;39.80;;;;;;5072216;28;19931;-58
2022/07/19 10:52:28;;;;;;;;;;;33.50;39.00;;;;;;5056793;28;19921;-59
2022/07/19 10:55:12;;;;;;;;;;;33.50;38.70;;;;;;5070368;28;19920;-59
2022/07/19 10:57:38;;;;;;;;;;;33.60;38.90;;;;;;5070539;28;19952;-57
2022/07/19 11:00:23;;;;;;;;;;;33.70;38.70;;;;;;5068163;28;20358;-58
2022/07/19 11:02:49;;;;;;;;;;;33.70;38.90;;;;;;5069149;28;19966;-58
2022/07/19 11:05:20;;;;;;;;;;;33.90;38.00;;;;;;5068600;28;19931;-57
2022/07/19 11:07:49;;;;;;;;;;;34.00;38.00;;;;;;5069521;28;19913;-57
2022/07/19 11:10:26;;;;;;;;;;;34.00;38.20;;;;;;5069865;28;19908;-56
2022/07/19 11:12:52;;;;;;;;;;;34.10;37.60;;;;;;5069152;28;20012;-58
2022/07/19 11:15:17;;;;;;;;;;;34.10;38.10;;;;;;5069524;28;20003;-58
2022/07/19 11:17:52;;;;;;;;;;;34.20;37.40;;;;;;5071131;28;19959;-58
2022/07/19 11:20:19;;;;;;;;;;;34.30;37.30;;;;;;5071279;28;19913;-59
2022/07/19 11:22:45;;;;;;;;;;;34.40;38.00;;;;;;5068617;28;19967;-59
2022/07/19 11:25:12;;;;;;;;;;;34.60;36.90;;;;;;5070201;28;19938;-58
2022/07/19 11:27:44;;;;;;;;;;;34.60;37.30;;;;;;5069489;28;20424;-59
2022/07/19 11:30:10;;;;;;;;;;;34.70;36.20;;;;;;5047106;28;20366;-58
2022/07/19 11:32:36;;;;;;;;;;;34.80;37.10;;;;;;5069618;28;19924;-57
2022/07/19 11:35:05;;;;;;;;;;;34.80;36.60;;;;;;5069164;28;19916;-58
2022/07/19 11:37:32;;;;;;;;;;;34.90;36.80;;;;;;5069804;28;19917;-57
2022/07/19 11:39:58;;;;;;;;;;;34.90;37.10;;;;;;5068777;28;19916;-57
2022/07/19 11:42:30;;;;;;;;;;;34.90;35.90;;;;;;5068319;28;19908;-58
2022/07/19 11:44:56;;;;;;;;;;;34.90;36.30;;;;;;5068180;28;19913;-58
2022/07/19 11:47:22;;;;;;;;;;;34.90;36.10;;;;;;5069272;28;20380;-58
2022/07/19 11:49:47;;;;;;;;;;;35.10;36.10;;;;;;5068658;28;20123;-58
2022/07/19 11:52:13;;;;;;;;;;;35.10;36.10;;;;;;5069275;28;20012;-58
2022/07/19 11:54:38;;;;;;;;;;;35.20;35.90;;;;;;5069578;28;19924;-58
2022/07/19 11:57:04;;;;;;;;;;;35.30;36.00;;;;;;5068824;28;20389;-57
2022/07/19 11:59:29;;;;;;;;;;;35.40;35.40;;;;;;5041046;28;20479;-58
2022/07/19 12:01:57;;;;;;;;;;;35.40;36.10;;;;;;5069465;28;19912;-59
2022/07/19 12:04:23;;;;;;;;;;;35.40;36.00;;;;;;5068698;28;19923;-58
2022/07/19 12:06:51;;;;;;;;;;;35.40;35.40;;;;;;5045085;28;20547;-58
2022/07/19 12:09:18;;;;;;;;;;;35.60;35.10;;;;;;5068663;28;19916;-59
2022/07/19 12:11:51;;;;;;;;;;;35.70;36.00;;;;;;5068473;28;20341;-57
2022/07/19 12:14:17;;;;;;;;;;;35.70;35.70;;;;;;5065287;28;19932;-58
2022/07/19 12:16:43;;;;;;;;;;;35.80;35.10;;;;;;5068982;28;19916;-58
2022/07/19 12:19:10;;;;;;;;;;;35.90;35.40;;;;;;5068698;28;19953;-59
2022/07/19 12:21:38;;;;;;;;;;;35.90;35.50;;;;;;5068713;28;19944;-58
2022/07/19 12:24:15;;;;;;;;;;;36.00;36.10;;;;;;5068484;28;19940;-58
2022/07/19 12:26:42;;;;;;;;;;;36.00;36.00;;;;;;5068287;28;19942;-58
2022/07/19 12:29:24;;;;;;;;;;;36.10;35.80;;;;;;5069060;28;20006;-57
2022/07/19 12:31:52;;;;;;;;;;;36.10;36.20;;;;;;5064140;28;20377;-58
2022/07/19 12:34:18;;;;;;;;;;;36.20;36.10;;;;;;5068866;28;19932;-58
2022/07/19 12:36:44;;;;;;;;;;;36.20;36.10;;;;;;5069503;28;19994;-58
2022/07/19 12:39:35;;;;;;;;;;;36.20;36.20;;;;;;5069690;28;20404;-58
2022/07/19 12:42:03;;;;;;;;;;;36.30;35.50;;;;;;5065376;28;19982;-59
2022/07/19 12:44:28;;;;;;;;;;;36.20;35.60;;;;;;5066548;28;19920;-58
2022/07/19 12:46:54;;;;;;;;;;;36.20;35.70;;;;;;5067216;28;19916;-58
2022/07/19 12:49:20;;;;;;;;;;;36.20;35.60;;;;;;5045398;28;19928;-58
2022/07/19 12:51:45;;;;;;;;;;;36.10;36.00;;;;;;5069200;28;19920;-58
2022/07/19 12:54:11;;;;;;;;;;;36.10;35.80;;;;;;5067304;28;20273;-58
2022/07/19 12:56:37;;;;;;;;;;;36.20;36.00;;;;;;5068283;28;20389;-58
2022/07/19 13:01:47;;;;;;;;;;;36.30;36.30;;;;;;5068847;28;19920;-58
2022/07/19 13:04:12;;;;;;;;;;;36.40;36.10;;;;;;5070093;28;19908;-58
2022/07/19 13:06:38;;;;;;;;;;;36.60;36.30;;;;;;5075453;28;20364;-57
2022/07/19 13:09:03;;;;;;;;;;;36.60;36.10;;;;;;5058833;28;19912;-57
2022/07/19 13:11:29;;;;;;;;;;;36.70;35.90;;;;;;5068228;28;19916;-59
2022/07/19 13:13:55;;;;;;;;;;;36.70;35.80;;;;;;5067096;28;19931;-59
2022/07/19 13:16:22;;;;;;;;;;;36.70;36.50;;;;;;5068694;28;20357;-57
2022/07/19 13:18:49;;;;;;;;;;;36.80;35.90;;;;;;5068546;28;20499;-57
2022/07/19 13:21:15;;;;;;;;;;;36.90;36.00;;;;;;5066925;28;19913;-59
2022/07/19 13:23:41;;;;;;;;;;;36.80;35.90;;;;;;5072318;28;20392;-58
2022/07/19 13:26:07;;;;;;;;;;;36.80;36.80;;;;;;5076976;28;19928;-57
2022/07/19 13:28:34;;;;;;;;;;;36.80;36.20;;;;;;5071335;28;19917;-58
2022/07/19 13:31:00;;;;;;;;;;;36.90;36.40;;;;;;5068756;28;19913;-57
2022/07/19 13:33:26;;;;;;;;;;;37.00;36.60;;;;;;5044273;28;19923;-59
2022/07/19 13:35:51;;;;;;;;;;;37.10;36.80;;;;;;5068103;28;19938;-58
2022/07/19 13:38:17;;;;;;;;;;;37.20;37.20;;;;;;5067156;28;20003;-58
2022/07/19 13:40:42;;;;;;;;;;;37.30;37.30;;;;;;5067432;28;19999;-59
2022/07/19 13:43:08;;;;;;;;;;;37.30;37.40;;;;;;5068689;28;19908;-59
2022/07/19 13:45:33;;;;;;;;;;;37.30;37.20;;;;;;5067562;28;19932;-58
2022/07/19 13:47:58;;;;;;;;;;;37.30;36.90;;;;;;5067964;28;19931;-57
2022/07/19 13:50:24;;;;;;;;;;;37.20;36.80;;;;;;5067400;28;19925;-59
2022/07/19 13:52:50;;;;;;;;;;;37.20;37.00;;;;;;5068339;28;19917;-58
2022/07/19 13:55:15;;;;;;;;;;;37.20;36.90;;;;;;5067963;28;20348;-59
2022/07/19 13:57:41;;;;;;;;;;;37.30;36.60;;;;;;5070223;28;19916;-61
2022/07/19 14:00:08;;;;;;;;;;;37.20;36.10;;;;;;5053895;28;19923;-58
2022/07/19 14:02:33;;;;;;;;;;;37.20;35.70;;;;;;5071465;28;19923;-58
2022/07/19 14:04:59;;;;;;;;;;;37.20;35.80;;;;;;5072118;28;20003;-59
2022/07/19 14:07:24;;;;;;;;;;;37.20;35.40;;;;;;5070684;28;20365;-57
2022/07/19 14:09:50;;;;;;;;;;;37.10;35.30;;;;;;5070899;28;19916;-58
2022/07/19 14:12:15;;;;;;;;;;;37.20;35.40;;;;;;5071729;28;20467;-59
2022/07/19 14:14:41;;;;;;;;;;;37.20;35.50;;;;;;5071800;28;20008;-58
2022/07/19 14:17:06;;;;;;;;;;;37.20;35.80;;;;;;5071492;28;19958;-58